Time;durP1;ratioP1;P1;durP2;ratioP2;P2;SDS_P1;SDS_P2;PMS_P1;PMS_P2;Temp;Humidity;BMP_temperature;BMP_pressure;BME280_temperature;BME280_humidity;BME280_pressure;Samples;Min_cycle;Max_cycle;Signal;HPM_P1;HPM_P2
2022/05/14 00:00:19;;;;;;;6.82;4.90;;;11.90;99.90;;;;;;5097550;28;20184;-69
2022/05/14 00:02:45;;;;;;;7.97;4.93;;;11.90;99.90;;;;;;5115770;28;20189;-69
2022/05/14 00:05:11;;;;;;;13.30;5.72;;;11.70;99.90;;;;;;5096821;28;20176;-69
2022/05/14 00:07:37;;;;;;;6.15;4.75;;;11.80;99.90;;;;;;5096417;28;20196;-69
2022/05/14 00:10:05;;;;;;;9.02;4.90;;;11.80;99.90;;;;;;5114326;28;20178;-69
2022/05/14 00:15:14;;;;;;;7.38;4.82;;;11.70;99.90;;;;;;5114508;28;20168;-69
2022/05/14 00:17:40;;;;;;;6.30;5.00;;;11.60;99.90;;;;;;5096322;28;20230;-69
2022/05/14 00:20:07;;;;;;;6.80;4.87;;;11.60;99.90;;;;;;5114223;28;20181;-69
2022/05/14 00:22:32;;;;;;;8.35;5.10;;;11.60;99.90;;;;;;5114366;28;20200;-70
2022/05/14 00:24:58;;;;;;;6.70;5.13;;;11.60;99.90;;;;;;5115464;28;20244;-70
2022/05/14 00:27:24;;;;;;;11.03;4.77;;;11.60;99.90;;;;;;5118399;28;20300;-69
2022/05/14 00:29:50;;;;;;;8.57;4.97;;;11.60;99.90;;;;;;5118167;28;20179;-69
2022/05/14 00:32:16;;;;;;;7.90;4.53;;;11.70;99.90;;;;;;5099970;28;20183;-69
2022/05/14 00:34:42;;;;;;;8.35;4.70;;;11.70;99.90;;;;;;5118612;28;20180;-69
2022/05/14 00:37:07;;;;;;;7.30;4.25;;;11.60;99.90;;;;;;5118140;28;20199;-71
2022/05/14 00:39:33;;;;;;;10.07;4.80;;;11.50;99.90;;;;;;5118102;28;20610;-69
2022/05/14 00:41:59;;;;;;;6.40;4.60;;;11.40;99.90;;;;;;5118691;28;20186;-69
2022/05/14 00:44:25;;;;;;;10.43;4.77;;;11.30;99.90;;;;;;5117796;28;20214;-70
2022/05/14 00:47:03;;;;;;;5.87;5.00;;;11.10;99.90;;;;;;5117844;28;20193;-69
2022/05/14 00:49:32;;;;;;;5.80;4.67;;;11.10;99.90;;;;;;5117899;28;20172;-70
2022/05/14 00:51:59;;;;;;;8.13;5.20;;;11.00;99.90;;;;;;5118071;28;20629;-69
2022/05/14 00:54:40;;;;;;;7.17;5.50;;;10.90;99.90;;;;;;5117805;28;20196;-69
2022/05/14 00:57:12;;;;;;;7.43;5.43;;;10.90;99.90;;;;;;5117593;28;20185;-69
2022/05/14 00:59:37;;;;;;;9.93;6.03;;;10.80;99.90;;;;;;5117399;28;20153;-69
2022/05/14 01:02:05;;;;;;;7.27;5.40;;;10.80;99.90;;;;;;5117720;28;20303;-69
2022/05/14 01:04:31;;;;;;;11.00;6.13;;;10.70;99.90;;;;;;5099146;28;20617;-70
2022/05/14 01:06:59;;;;;;;7.37;5.93;;;10.60;99.90;;;;;;5117482;28;20203;-70
2022/05/14 01:09:25;;;;;;;6.10;5.50;;;10.60;99.90;;;;;;5117440;28;20213;-69
2022/05/14 01:11:54;;;;;;;9.10;6.47;;;10.70;99.90;;;;;;5099950;28;20172;-70
2022/05/14 01:14:20;;;;;;;10.10;6.07;;;10.70;99.90;;;;;;5098646;28;20196;-70
2022/05/14 01:16:46;;;;;;;7.33;5.60;;;10.70;99.90;;;;;;5099022;28;20196;-70
2022/05/14 01:19:12;;;;;;;7.50;6.17;;;10.70;99.90;;;;;;5117196;28;20173;-70
2022/05/14 01:22:07;;;;;;;7.87;5.80;;;10.70;99.90;;;;;;5117240;28;20176;-70
2022/05/14 01:27:27;;;;;;;9.00;5.43;;;10.60;99.90;;;;;;5117545;28;20748;-70
2022/05/14 01:29:53;;;;;;;8.60;5.07;;;10.60;99.90;;;;;;5116872;28;20248;-70
2022/05/14 01:32:19;;;;;;;7.27;5.27;;;10.60;99.90;;;;;;5098718;28;20241;-70
2022/05/14 01:34:45;;;;;;;6.30;5.27;;;10.60;99.90;;;;;;5117039;28;20200;-70
2022/05/14 01:37:11;;;;;;;7.83;5.20;;;10.60;99.90;;;;;;5116793;28;20192;-70
2022/05/14 01:39:37;;;;;;;6.23;5.47;;;10.50;99.90;;;;;;5098695;28;20188;-70
2022/05/14 01:42:04;;;;;;;9.13;5.57;;;10.40;99.90;;;;;;5116643;28;20194;-70
2022/05/14 01:44:30;;;;;;;8.13;6.00;;;10.40;99.90;;;;;;5098583;28;20172;-70
2022/05/14 01:46:55;;;;;;;8.43;5.13;;;10.30;99.90;;;;;;5116772;28;20240;-70
2022/05/14 01:49:21;;;;;;;9.90;5.57;;;10.20;99.90;;;;;;5098701;28;20172;-70
2022/05/14 01:51:47;;;;;;;6.37;5.67;;;10.00;99.90;;;;;;5116687;28;20172;-70
2022/05/14 01:54:13;;;;;;;6.73;6.03;;;10.00;99.90;;;;;;5116697;28;20243;-70
2022/05/14 01:56:39;;;;;;;8.23;6.30;;;10.00;99.90;;;;;;5116644;28;20275;-70
2022/05/14 01:59:05;;;;;;;8.50;5.80;;;10.00;99.90;;;;;;5116309;28;20239;-70
2022/05/14 02:01:33;;;;;;;7.87;5.80;;;10.00;99.90;;;;;;5116112;28;20620;-70
2022/05/14 02:04:02;;;;;;;7.53;6.00;;;9.80;99.90;;;;;;5116536;28;20571;-70
2022/05/14 02:06:29;;;;;;;8.90;6.27;;;9.70;99.90;;;;;;5116183;28;20683;-70
2022/05/14 02:08:56;;;;;;;7.83;6.83;;;9.70;99.90;;;;;;5098134;28;20184;-70
2022/05/14 02:11:22;;;;;;;7.93;5.80;;;9.70;99.90;;;;;;5116224;28;20169;-70
2022/05/14 02:13:50;;;;;;;11.23;6.53;;;9.70;99.90;;;;;;5116161;28;20195;-70
2022/05/14 02:16:16;;;;;;;7.57;6.03;;;9.70;99.90;;;;;;5116041;28;20196;-70
2022/05/14 02:18:43;;;;;;;10.60;6.27;;;9.70;99.90;;;;;;5116602;28;20644;-70
2022/05/14 02:21:09;;;;;;;8.27;6.13;;;9.60;99.90;;;;;;5116081;28;20180;-70
2022/05/14 02:23:37;;;;;;;8.57;6.63;;;9.60;99.90;;;;;;5097943;28;20204;-70
2022/05/14 02:26:06;;;;;;;7.50;6.50;;;9.50;99.90;;;;;;5097929;28;20662;-70
2022/05/14 02:28:32;;;;;;;9.73;6.63;;;9.40;99.90;;;;;;5116274;28;20255;-70
2022/05/14 02:30:57;;;;;;;8.53;7.20;;;9.30;99.90;;;;;;5116251;28;20181;-71
2022/05/14 02:33:23;;;;;;;11.73;7.13;;;9.30;99.90;;;;;;5116398;28;20172;-70
2022/05/14 02:35:49;;;;;;;8.13;7.27;;;9.40;99.90;;;;;;5097808;28;20652;-70
2022/05/14 02:38:15;;;;;;;8.87;7.20;;;9.30;99.90;;;;;;5097514;28;20234;-70
2022/05/14 02:40:42;;;;;;;11.73;7.40;;;9.40;99.90;;;;;;5115671;28;20177;-70
2022/05/14 02:43:09;;;;;;;8.63;7.33;;;9.50;99.90;;;;;;5115541;28;20256;-70
2022/05/14 02:45:35;;;;;;;8.47;5.93;;;9.50;99.90;;;;;;5096878;28;20225;-70
2022/05/14 02:48:01;;;;;;;7.03;5.53;;;9.60;99.90;;;;;;5114901;28;20193;-70
2022/05/14 02:50:27;;;;;;;7.43;5.70;;;9.50;99.90;;;;;;5097282;28;20528;-70
2022/05/14 02:52:53;;;;;;;6.83;5.70;;;9.60;99.90;;;;;;5115645;28;20176;-70
2022/05/14 02:55:19;;;;;;;7.47;5.73;;;9.50;99.90;;;;;;5115502;28;20187;-70
2022/05/14 02:57:45;;;;;;;6.77;5.77;;;9.50;99.90;;;;;;5115368;28;20253;-70
2022/05/14 03:00:13;;;;;;;8.27;6.50;;;9.40;99.90;;;;;;5096829;28;20185;-70
2022/05/14 03:02:39;;;;;;;7.80;5.97;;;9.40;99.90;;;;;;5115161;28;20200;-70
2022/05/14 03:05:06;;;;;;;8.33;6.60;;;9.40;99.90;;;;;;5115215;28;20176;-70
2022/05/14 03:07:32;;;;;;;11.77;6.80;;;9.40;99.90;;;;;;5115025;28;20548;-70
2022/05/14 03:09:58;;;;;;;8.80;6.77;;;9.30;99.90;;;;;;5115266;28;20200;-70
2022/05/14 03:12:24;;;;;;;7.33;6.23;;;9.30;99.90;;;;;;5115168;28;20180;-70
2022/05/14 03:14:50;;;;;;;9.57;6.80;;;9.20;99.90;;;;;;5115018;28;20570;-70
2022/05/14 03:17:18;;;;;;;9.77;6.57;;;9.20;99.90;;;;;;5096917;28;20199;-70
2022/05/14 03:19:44;;;;;;;8.20;6.20;;;9.10;99.90;;;;;;5115208;28;20180;-70
2022/05/14 03:22:10;;;;;;;10.40;6.00;;;9.10;99.90;;;;;;5096738;28;20656;-70
2022/05/14 03:24:36;;;;;;;9.93;6.10;;;9.00;99.90;;;;;;5115507;28;20183;-70
2022/05/14 03:27:03;;;;;;;9.17;5.77;;;8.90;99.90;;;;;;5096551;28;20200;-70
2022/05/14 03:29:28;;;;;;;8.77;6.73;;;8.90;99.90;;;;;;5115020;28;20183;-70
2022/05/14 03:31:57;;;;;;;11.87;6.17;;;8.80;99.90;;;;;;5115286;28;20172;-70
2022/05/14 03:34:23;;;;;;;9.73;6.40;;;8.80;99.90;;;;;;5096804;28;20173;-70
2022/05/14 03:36:50;;;;;;;9.20;6.47;;;8.80;99.90;;;;;;5096473;28;20292;-70
2022/05/14 03:39:16;;;;;;;8.40;6.57;;;8.80;99.90;;;;;;5114637;28;20192;-70
2022/05/14 03:41:42;;;;;;;8.13;6.80;;;8.70;99.90;;;;;;5096360;28;20553;-70
2022/05/14 03:44:08;;;;;;;10.70;6.63;;;8.60;99.90;;;;;;5114492;28;20214;-70
2022/05/14 03:46:34;;;;;;;8.47;6.20;;;8.60;99.90;;;;;;5114473;28;20200;-70
2022/05/14 03:49:00;;;;;;;8.20;7.00;;;8.50;99.90;;;;;;5114492;28;20200;-70
2022/05/14 03:51:27;;;;;;;9.40;6.80;;;8.60;99.90;;;;;;5114860;28;20169;-70
2022/05/14 03:53:54;;;;;;;8.30;6.20;;;8.70;99.90;;;;;;5096403;28;20219;-70
2022/05/14 03:56:19;;;;;;;7.63;5.97;;;8.70;99.90;;;;;;5096419;28;20204;-70
2022/05/14 03:58:45;;;;;;;12.03;6.83;;;8.80;99.90;;;;;;5114387;28;20536;-70
2022/05/14 04:01:11;;;;;;;8.93;6.47;;;8.90;99.90;;;;;;5114128;28;20551;-70
2022/05/14 04:03:37;;;;;;;10.37;6.27;;;9.00;99.90;;;;;;5114535;28;20200;-70
2022/05/14 04:06:04;;;;;;;6.63;5.97;;;8.90;99.90;;;;;;5114186;28;20196;-70
2022/05/14 04:08:30;;;;;;;8.00;6.53;;;8.80;99.90;;;;;;5104509;28;20185;-70
2022/05/14 04:10:56;;;;;;;8.03;6.00;;;8.80;99.90;;;;;;5093976;28;20215;-70
2022/05/14 04:13:22;;;;;;;6.97;6.33;;;8.80;99.90;;;;;;5093966;28;20571;-70
2022/05/14 04:15:48;;;;;;;9.60;6.73;;;8.80;99.90;;;;;;5093647;28;20185;-70
2022/05/14 04:18:15;;;;;;;8.13;7.07;;;8.90;99.90;;;;;;5075862;28;20226;-70
2022/05/14 04:20:41;;;;;;;8.20;5.90;;;8.90;99.90;;;;;;5093995;28;20204;-71
2022/05/14 04:23:07;;;;;;;9.60;7.13;;;8.90;99.90;;;;;;5076955;28;20653;-71
2022/05/14 04:25:33;;;;;;;7.20;6.50;;;8.90;99.90;;;;;;5075629;28;20634;-70
2022/05/14 04:27:59;;;;;;;8.13;6.53;;;8.80;99.90;;;;;;5075608;28;20223;-70
2022/05/14 04:30:26;;;;;;;7.90;6.83;;;8.80;99.90;;;;;;5093566;28;20172;-70
2022/05/14 04:32:52;;;;;;;8.73;6.40;;;8.80;99.90;;;;;;5093621;28;20183;-70
2022/05/14 04:35:18;;;;;;;9.53;6.90;;;8.80;99.90;;;;;;5075671;28;20177;-70
2022/05/14 04:37:44;;;;;;;7.47;6.33;;;8.90;99.90;;;;;;5078490;28;20214;-70
2022/05/14 04:40:11;;;;;;;9.83;6.60;;;8.90;99.90;;;;;;5095631;28;20177;-70
2022/05/14 04:42:38;;;;;;;9.97;7.00;;;9.00;99.90;;;;;;5113817;28;20232;-70
2022/05/14 04:45:05;;;;;;;9.73;6.87;;;9.00;99.90;;;;;;5095515;28;20204;-70
2022/05/14 04:47:31;;;;;;;8.17;6.57;;;9.00;99.90;;;;;;5113934;28;20207;-70
2022/05/14 04:49:56;;;;;;;7.37;6.50;;;9.10;99.90;;;;;;5113692;28;20259;-70
2022/05/14 04:52:22;;;;;;;9.03;6.70;;;9.10;99.90;;;;;;5114097;28;20168;-70
2022/05/14 04:54:48;;;;;;;7.30;6.60;;;9.10;99.90;;;;;;5095634;28;20183;-70
2022/05/14 04:57:14;;;;;;;10.07;7.23;;;9.20;99.90;;;;;;5113894;28;20279;-70
2022/05/14 04:59:40;;;;;;;7.77;6.97;;;9.20;99.90;;;;;;5095526;28;20625;-70
2022/05/14 05:04:50;;;;;;;8.20;7.40;;;9.20;99.90;;;;;;5114118;28;20229;-69
2022/05/14 05:07:16;;;;;;;7.10;6.40;;;9.20;99.90;;;;;;5113874;28;20192;-69
2022/05/14 05:09:42;;;;;;;9.10;6.13;;;9.20;99.90;;;;;;5095439;28;20181;-69
2022/05/14 05:12:08;;;;;;;9.53;6.57;;;9.20;99.90;;;;;;5116743;28;20215;-69
2022/05/14 05:14:34;;;;;;;7.73;6.93;;;9.20;99.90;;;;;;5117699;28;20199;-69
2022/05/14 05:17:00;;;;;;;7.67;6.47;;;9.30;99.90;;;;;;5099016;28;20567;-69
2022/05/14 05:19:26;;;;;;;10.30;6.47;;;9.40;99.90;;;;;;5117510;28;20173;-69
2022/05/14 05:21:51;;;;;;;9.87;7.50;;;9.50;99.90;;;;;;5099262;28;20257;-69
2022/05/14 05:24:17;;;;;;;7.60;6.83;;;9.70;99.90;;;;;;5099053;28;20241;-70
2022/05/14 05:26:43;;;;;;;8.07;6.90;;;9.80;99.90;;;;;;5099074;28;20196;-70
2022/05/14 05:29:09;;;;;;;8.93;7.33;;;9.90;99.90;;;;;;5099059;28;20184;-70
2022/05/14 05:31:35;;;;;;;10.87;7.63;;;10.00;99.90;;;;;;5117173;28;20181;-70
2022/05/14 05:34:02;;;;;;;12.10;7.63;;;10.10;99.90;;;;;;5098895;28;20539;-70
2022/05/14 05:36:29;;;;;;;9.27;7.27;;;10.30;99.90;;;;;;5098734;28;20548;-70
2022/05/14 05:38:55;;;;;;;11.90;7.57;;;10.40;99.90;;;;;;5117005;28;20194;-70
2022/05/14 05:41:21;;;;;;;7.97;7.00;;;10.50;99.90;;;;;;5116999;28;20264;-70
2022/05/14 05:43:48;;;;;;;10.53;7.97;;;10.50;99.90;;;;;;5098589;28;20216;-69
2022/05/14 05:46:14;;;;;;;7.73;6.57;;;10.70;99.90;;;;;;5116623;28;20192;-70
2022/05/14 05:48:41;;;;;;;8.73;7.23;;;10.80;99.90;;;;;;5098577;28;20205;-70
2022/05/14 05:51:07;;;;;;;10.93;7.57;;;10.90;99.90;;;;;;5098606;28;20177;-70
2022/05/14 05:59:03;;;;;;;9.83;7.63;;;11.20;99.90;;;;;;5119681;28;20175;-70
2022/05/14 06:01:29;;;;;;;10.17;7.93;;;11.30;99.90;;;;;;5100262;28;20214;-70
2022/05/14 06:03:55;;;;;;;13.87;7.60;;;11.50;99.90;;;;;;5100012;28;20211;-69
2022/05/14 06:06:21;;;;;;;9.40;7.43;;;11.70;99.90;;;;;;5118478;28;20211;-70
2022/05/14 06:08:50;;;;;;;8.93;7.17;;;11.80;99.90;;;;;;5118303;28;20181;-70
2022/05/14 06:11:17;;;;;;;10.47;7.07;;;11.90;99.90;;;;;;5099733;28;20172;-70
2022/05/14 06:13:44;;;;;;;14.43;7.63;;;12.10;99.90;;;;;;5098983;28;20286;-70
2022/05/14 06:16:14;;;;;;;9.87;7.30;;;12.30;99.90;;;;;;5116805;28;20204;-70
2022/05/14 06:18:44;;;;;;;11.53;7.33;;;12.30;99.90;;;;;;5116837;28;20184;-69
2022/05/14 06:21:11;;;;;;;8.50;6.50;;;12.30;99.90;;;;;;5116394;28;20176;-70
2022/05/14 06:23:37;;;;;;;9.93;6.40;;;12.40;99.90;;;;;;5115275;28;20257;-70
2022/05/14 06:26:02;;;;;;;10.10;6.43;;;12.40;99.90;;;;;;5116524;28;20188;-70
2022/05/14 06:28:28;;;;;;;10.20;6.23;;;12.50;99.90;;;;;;5097762;28;20641;-69
2022/05/14 06:30:56;;;;;;;9.80;6.07;;;12.50;99.90;;;;;;5097184;28;20187;-70
2022/05/14 06:33:21;;;;;;;7.97;6.70;;;12.50;99.90;;;;;;5115541;28;20267;-69
2022/05/14 06:35:47;;;;;;;9.70;6.07;;;12.60;99.90;;;;;;5116274;28;20200;-69
2022/05/14 06:38:14;;;;;;;11.63;5.53;;;12.60;99.90;;;;;;5116087;28;20198;-69
2022/05/14 06:40:41;;;;;;;10.77;6.27;;;12.70;99.90;;;;;;5115924;28;20173;-69
2022/05/14 06:43:07;;;;;;;13.37;6.07;;;12.90;99.90;;;;;;5115316;28;20205;-69
2022/05/14 06:45:33;;;;;;;12.73;6.47;;;12.90;99.90;;;;;;5115086;28;20172;-70
2022/05/14 06:47:59;;;;;;;11.50;6.90;;;12.90;99.90;;;;;;5115381;28;20656;-69
2022/05/14 06:50:27;;;;;;;13.93;6.07;;;12.90;99.90;;;;;;5115504;28;20542;-69
2022/05/14 06:52:57;;;;;;;8.57;6.10;;;12.90;99.90;;;;;;5115533;28;20634;-70
2022/05/14 06:55:26;;;;;;;13.80;6.60;;;13.00;99.90;;;;;;5115815;28;20164;-69
2022/05/14 06:57:53;;;;;;;12.75;6.30;;;13.10;99.90;;;;;;5115247;28;20552;-69
2022/05/14 07:00:19;;;;;;;15.40;6.53;;;13.10;99.90;;;;;;5115553;28;20530;-69
2022/05/14 07:02:46;;;;;;;13.88;6.35;;;13.30;99.90;;;;;;5115033;28;20204;-70
2022/05/14 07:07:58;;;;;;;12.83;5.97;;;13.40;99.90;;;;;;5115096;28;20208;-69
2022/05/14 07:10:24;;;;;;;13.33;6.43;;;13.50;99.90;;;;;;5096779;28;20207;-69
2022/05/14 07:12:51;;;;;;;11.88;6.30;;;13.60;99.90;;;;;;5114957;28;20720;-70
2022/05/14 07:15:17;;;;;;;9.63;6.15;;;13.70;99.90;;;;;;5114803;28;20226;-70
2022/05/14 07:17:43;;;;;;;10.50;6.20;;;13.70;99.90;;;;;;5114564;28;20196;-69
2022/05/14 07:20:09;;;;;;;11.15;6.38;;;13.80;99.90;;;;;;5115036;28;20234;-70
2022/05/14 07:22:36;;;;;;;8.20;5.93;;;14.00;99.90;;;;;;5114394;28;20254;-70
2022/05/14 07:25:02;;;;;;;11.50;5.90;;;14.10;99.90;;;;;;5114529;28;20177;-70
2022/05/14 07:27:28;;;;;;;12.50;6.28;;;14.20;99.90;;;;;;5114374;28;20564;-69
2022/05/14 07:29:54;;;;;;;10.95;5.70;;;14.40;99.90;;;;;;5115025;28;20179;-69
2022/05/14 07:32:20;;;;;;;11.40;5.97;;;14.40;99.90;;;;;;5114809;28;20208;-70
2022/05/14 07:34:46;;;;;;;12.00;6.32;;;14.50;99.90;;;;;;5114693;28;20177;-70
2022/05/14 07:37:18;;;;;;;11.05;6.00;;;14.70;99.90;;;;;;5114696;28;20687;-70
2022/05/14 07:39:48;;;;;;;10.32;5.35;;;14.80;99.90;;;;;;5114709;28;20176;-70
2022/05/14 07:42:20;;;;;;;13.20;6.25;;;14.90;99.90;;;;;;5096385;28;20169;-70
2022/05/14 07:44:50;;;;;;;8.32;5.75;;;14.90;99.90;;;;;;5114502;28;20157;-70
2022/05/14 07:47:16;;;;;;;11.18;5.03;;;14.90;99.90;;;;;;5114416;28;20180;-70
2022/05/14 07:49:44;;;;;;;13.88;5.80;;;15.10;99.90;;;;;;5114694;28;20222;-70
2022/05/14 07:52:11;;;;;;;9.35;5.38;;;15.20;99.90;;;;;;5114479;28;20514;-70
2022/05/14 07:54:37;;;;;;;10.52;5.07;;;15.20;99.90;;;;;;5114377;28;20187;-70
2022/05/14 07:57:06;;;;;;;11.73;5.20;;;15.30;99.90;;;;;;5096387;28;20192;-70
2022/05/14 07:59:32;;;;;;;9.48;5.68;;;15.40;99.90;;;;;;5114427;28;20175;-70
2022/05/14 08:01:58;;;;;;;16.38;5.30;;;15.50;99.90;;;;;;5114208;28;20580;-70
2022/05/14 08:04:24;;;;;;;8.88;5.35;;;15.60;99.90;;;;;;5114431;28;20180;-70
2022/05/14 08:06:49;;;;;;;10.32;4.55;;;15.60;99.90;;;;;;5095822;28;20329;-70
2022/05/14 08:09:15;;;;;;;8.80;5.10;;;15.70;99.90;;;;;;5097969;28;20173;-70
2022/05/14 08:11:41;;;;;;;9.65;4.80;;;15.80;99.90;;;;;;5093917;28;20176;-70
2022/05/14 08:14:07;;;;;;;11.02;4.82;;;15.80;99.90;;;;;;5076013;28;20245;-70
2022/05/14 08:16:32;;;;;;;12.68;5.32;;;15.90;99.90;;;;;;5075136;28;20201;-70
2022/05/14 08:18:58;;;;;;;7.32;4.80;;;16.00;99.90;;;;;;5075756;28;20588;-70
2022/05/14 08:26:53;;;;;;;11.15;5.50;;;16.20;99.90;;;;;;5094236;28;20192;-70
2022/05/14 08:29:20;;;;;;;10.57;4.68;;;16.30;99.90;;;;;;5093963;28;20531;-70
2022/05/14 08:31:46;;;;;;;9.70;4.45;;;16.40;99.90;;;;;;5075524;28;20177;-70
2022/05/14 08:34:12;;;;;;;10.27;4.20;;;16.40;99.90;;;;;;5075649;28;20204;-70
2022/05/14 08:36:38;;;;;;;10.32;4.43;;;16.60;99.90;;;;;;5094466;28;20189;-70
2022/05/14 08:39:04;;;;;;;5.40;4.18;;;16.70;99.90;;;;;;5107825;28;20533;-70
2022/05/14 08:41:33;;;;;;;8.05;4.55;;;16.70;99.90;;;;;;5095734;28;20237;-70
2022/05/14 08:44:03;;;;;;;9.13;4.75;;;16.80;99.90;;;;;;5114076;28;20289;-70
2022/05/14 08:46:32;;;;;;;8.00;4.15;;;17.10;99.90;;;;;;5115756;28;20275;-71
2022/05/14 08:49:05;;;;;;;10.63;4.28;;;17.30;99.90;;;;;;5099897;28;20222;-70
2022/05/14 08:51:34;;;;;;;9.25;4.20;;;17.30;99.90;;;;;;5099784;28;20227;-70
2022/05/14 08:54:00;;;;;;;9.02;4.57;;;17.60;99.90;;;;;;5118087;28;20169;-70
2022/05/14 08:56:36;;;;;;;9.70;3.97;;;17.80;99.90;;;;;;5099595;28;20206;-70
2022/05/14 08:59:25;;;;;;;11.65;5.05;;;17.90;99.90;;;;;;5118216;28;20190;-70
2022/05/14 09:01:57;;;;;;;14.75;4.70;;;18.00;99.90;;;;;;5117585;28;20652;-70
2022/05/14 09:04:23;;;;;;;9.40;4.03;;;17.90;99.90;;;;;;5117784;28;20279;-70
2022/05/14 09:06:50;;;;;;;9.60;4.28;;;18.00;99.90;;;;;;5099365;28;20220;-70
2022/05/14 09:09:17;;;;;;;9.73;4.05;;;18.20;99.90;;;;;;5099196;28;20187;-70
2022/05/14 09:11:45;;;;;;;7.13;3.83;;;18.30;99.90;;;;;;5117532;28;20169;-70
2022/05/14 09:14:23;;;;;;;11.82;4.38;;;18.60;99.90;;;;;;5098970;28;20231;-70
2022/05/14 09:16:51;;;;;;;9.10;4.35;;;18.60;99.90;;;;;;5117094;28;20196;-70
2022/05/14 09:19:19;;;;;;;9.80;4.60;;;18.70;99.90;;;;;;5117324;28;20179;-70
2022/05/14 09:21:58;;;;;;;13.48;4.40;;;18.90;99.90;;;;;;5117369;28;20184;-70
2022/05/14 09:24:27;;;;;;;11.23;3.88;;;19.10;99.90;;;;;;5117452;28;20215;-70
2022/05/14 09:27:07;;;;;;;11.25;4.38;;;19.20;99.90;;;;;;5117079;28;20188;-70
2022/05/14 09:29:39;;;;;;;9.77;4.28;;;19.30;99.90;;;;;;5098994;28;20213;-70
2022/05/14 09:32:29;;;;;;;10.40;3.80;;;19.40;99.90;;;;;;5098506;28;20644;-70
2022/05/14 09:35:25;;;;;;;10.32;4.13;;;19.60;99.90;;;;;;5117115;28;20157;-71
2022/05/14 09:37:55;;;;;;;10.43;4.47;;;19.80;99.90;;;;;;5078306;28;20213;-71
2022/05/14 09:40:26;;;;;;;10.98;4.05;;;19.70;99.90;;;;;;5099017;28;20253;-71
2022/05/14 09:43:08;;;;;;;8.65;4.50;;;19.90;99.90;;;;;;5117628;28;20265;-71
2022/05/14 09:45:37;;;;;;;12.95;3.95;;;19.90;99.90;;;;;;5099307;28;20638;-71
2022/05/14 09:48:21;;;;;;;11.27;4.40;;;19.90;99.90;;;;;;5116927;28;20184;-68
2022/05/14 09:50:54;;;;;;;8.60;3.83;;;20.00;99.90;;;;;;5117180;28;20179;-69
2022/05/14 09:53:28;;;;;;;8.40;3.53;;;20.20;99.90;;;;;;5116726;28;20568;-71
2022/05/14 09:56:06;;;;;;;11.02;3.85;;;20.40;99.90;;;;;;5098484;28;20232;-71
2022/05/14 09:58:47;;;;;;;9.48;3.90;;;20.60;99.90;;;;;;5117076;28;20160;-70
2022/05/14 10:01:26;;;;;;;10.75;3.70;;;20.30;99.90;;;;;;5098069;28;20165;-71
2022/05/14 10:04:20;;;;;;;8.95;3.45;;;20.00;99.90;;;;;;5116614;28;20252;-71
2022/05/14 10:06:51;;;;;;;11.68;4.28;;;19.90;99.90;;;;;;5116543;28;20660;-70
2022/05/14 10:09:35;;;;;;;10.18;3.55;;;19.90;99.90;;;;;;5116217;28;20207;-70
2022/05/14 10:12:36;;;;;;;9.18;3.55;;;19.90;99.90;;;;;;5098101;28;20176;-70
2022/05/14 10:15:08;;;;;;;7.57;3.88;;;20.00;99.90;;;;;;5097697;28;20191;-71
2022/05/14 10:17:46;;;;;;;10.38;3.75;;;19.90;99.90;;;;;;5097893;28;20269;-71
2022/05/14 10:20:14;;;;;;;11.90;4.07;;;20.20;99.90;;;;;;5116667;28;20527;-70
2022/05/14 10:28:51;;;;;;;15.30;4.20;;;19.90;99.90;;;;;;5116203;28;20221;-70
2022/05/14 10:31:35;;;;;;;10.13;4.05;;;19.70;99.90;;;;;;5097609;28;20172;-70
2022/05/14 10:34:05;;;;;;;7.57;3.38;;;19.50;99.90;;;;;;5116714;28;20192;-70
2022/05/14 10:36:57;;;;;;;6.88;3.67;;;19.60;99.90;;;;;;5097455;28;20200;-70
2022/05/14 10:39:58;;;;;;;11.50;3.75;;;19.70;99.90;;;;;;5115767;28;20267;-69
2022/05/14 10:42:33;;;;;;;7.47;3.40;;;19.60;99.90;;;;;;5115659;28;20173;-70
2022/05/14 10:45:20;;;;;;;15.90;5.13;;;19.60;99.90;;;;;;5116093;28;20164;-70
2022/05/14 10:48:06;;;;;;;14.13;4.72;;;19.60;99.90;;;;;;5115401;28;20272;-70
2022/05/14 10:50:31;;;;;;;12.13;4.25;;;19.70;99.90;;;;;;5097490;28;20233;-70
2022/05/14 10:52:58;;;;;;;8.93;3.25;;;19.50;99.90;;;;;;5115574;28;20180;-70
2022/05/14 10:55:32;;;;;;;14.25;4.15;;;19.70;99.90;;;;;;5116009;28;20169;-70
2022/05/14 10:58:03;;;;;;;10.25;3.53;;;19.80;99.90;;;;;;5116234;28;20192;-70
2022/05/14 11:00:28;;;;;;;7.57;3.40;;;19.60;99.90;;;;;;5097290;28;20180;-70
2022/05/14 11:03:22;;;;;;;7.85;3.22;;;19.70;99.90;;;;;;5097411;28;20196;-70
2022/05/14 11:06:02;;;;;;;9.77;3.45;;;20.10;99.90;;;;;;5115375;28;20219;-70
2022/05/14 11:08:28;;;;;;;9.55;3.42;;;20.10;99.90;;;;;;5096603;28;20186;-70
2022/05/14 11:11:08;;;;;;;11.50;3.33;;;20.40;99.90;;;;;;5116668;28;20251;-68
2022/05/14 11:13:35;;;;;;;9.27;3.60;;;20.60;99.90;;;;;;5097457;28;20192;-68
2022/05/14 11:16:10;;;;;;;7.53;3.42;;;20.70;99.90;;;;;;5097613;28;20177;-70
2022/05/14 11:18:52;;;;;;;10.10;3.25;;;20.70;99.90;;;;;;5116538;28;20160;-70
2022/05/14 11:21:22;;;;;;;11.07;3.13;;;20.40;99.90;;;;;;5097667;28;20259;-70
2022/05/14 11:23:59;;;;;;;12.65;3.85;;;20.30;99.90;;;;;;5098040;28;20200;-70
2022/05/14 11:26:26;;;;;;;15.23;3.90;;;20.40;99.90;;;;;;5097330;28;20192;-70
2022/05/14 11:29:01;;;;;;;9.80;4.80;;;20.50;99.90;;;;;;5115733;28;20240;-70
2022/05/14 11:31:31;;;;;;;11.45;3.90;;;20.80;99.90;;;;;;5115696;28;20168;-70
2022/05/14 11:34:01;;;;;;;7.35;2.95;;;20.70;99.90;;;;;;5096826;28;20255;-70
2022/05/14 11:36:30;;;;;;;9.18;3.42;;;20.70;99.90;;;;;;5114961;28;20281;-70
2022/05/14 11:39:20;;;;;;;13.07;3.88;;;20.70;99.90;;;;;;5114954;28;20177;-70
2022/05/14 11:41:47;;;;;;;8.85;3.10;;;21.00;99.90;;;;;;5115470;28;20186;-70
2022/05/14 11:44:24;;;;;;;12.00;3.70;;;21.20;99.90;;;;;;5114882;28;20196;-70
2022/05/14 11:46:51;;;;;;;9.82;3.45;;;21.30;99.90;;;;;;5096525;28;20254;-71
2022/05/14 11:49:25;;;;;;;14.32;3.45;;;21.50;99.90;;;;;;5114816;28;20652;-70
2022/05/14 11:52:03;;;;;;;8.75;3.47;;;21.60;99.90;;;;;;5096473;28;20168;-71
2022/05/14 11:54:30;;;;;;;8.23;3.22;;;22.00;99.90;;;;;;5114752;28;20164;-68
2022/05/14 11:57:20;;;;;;;7.32;3.28;;;22.30;99.90;;;;;;5114550;28;20188;-68
2022/05/14 12:00:26;;;;;;;7.88;3.40;;;22.70;99.90;;;;;;5096660;28;20176;-68
2022/05/14 12:03:13;;;;;;;10.25;3.63;;;22.60;99.90;;;;;;5086103;28;20700;-68
2022/05/14 12:06:08;;;;;;;8.75;3.33;;;22.70;99.90;;;;;;5099335;28;20178;-68
2022/05/14 12:08:53;;;;;;;10.40;3.40;;;22.60;99.90;;;;;;5094817;28;20192;-70
2022/05/14 12:11:48;;;;;;;9.38;3.35;;;22.80;99.90;;;;;;5116717;28;20175;-71
2022/05/14 12:14:20;;;;;;;8.27;2.90;;;22.90;99.90;;;;;;5116282;28;20196;-71
2022/05/14 12:16:52;;;;;;;8.23;3.10;;;23.10;99.90;;;;;;5098403;28;20208;-68
2022/05/14 12:19:22;;;;;;;6.57;2.85;;;23.50;99.90;;;;;;5116374;28;20230;-68
2022/05/14 12:22:00;;;;;;;8.32;3.33;;;23.80;99.90;;;;;;5123601;28;20245;-68
2022/05/14 12:24:31;;;;;;;9.70;3.03;;;23.40;99.90;;;;;;5119711;28;20279;-68
2022/05/14 12:26:58;;;;;;;7.22;3.03;;;22.90;99.90;;;;;;5118832;28;20217;-69
2022/05/14 12:29:33;;;;;;;8.35;3.00;;;23.10;99.90;;;;;;5118964;28;20168;-69
2022/05/14 12:35:16;;;;;;;8.55;3.72;;;23.40;99.90;;;;;;5055725;28;20174;-68
2022/05/14 12:37:42;;;;;;;9.95;3.30;;;23.40;99.90;;;;;;5108897;28;20208;-69
2022/05/14 12:40:18;;;;;;;7.18;3.20;;;23.40;99.90;;;;;;5118457;28;20173;-68
2022/05/14 12:42:44;;;;;;;8.00;3.15;;;23.50;99.90;;;;;;5118663;28;20523;-69
2022/05/14 12:45:11;;;;;;;6.82;3.60;;;23.80;99.90;;;;;;5118435;28;20218;-69
2022/05/14 12:47:38;;;;;;;9.90;3.22;;;23.70;99.90;;;;;;5099897;28;20199;-69
2022/05/14 12:50:20;;;;;;;6.43;3.00;;;23.90;99.90;;;;;;5118566;28;20184;-69
2022/05/14 12:52:55;;;;;;;7.97;3.53;;;24.00;99.90;;;;;;5118788;28;20152;-69
2022/05/14 12:55:22;;;;;;;6.18;2.83;;;24.40;99.90;;;;;;5099737;28;20219;-68
2022/05/14 12:57:48;;;;;;;8.60;3.83;;;23.90;99.90;;;;;;5099685;28;20268;-69
2022/05/14 13:00:16;;;;;;;9.02;3.30;;;24.40;99.90;;;;;;5117858;28;20184;-69
2022/05/14 13:02:51;;;;;;;10.18;3.00;;;24.90;99.90;;;;;;5117572;28;20220;-69
2022/05/14 13:05:36;;;;;;;9.55;4.22;;;25.10;99.90;;;;;;5099521;28;20624;-69
2022/05/14 13:08:10;;;;;;;7.15;3.35;;;25.10;99.90;;;;;;5117964;28;20290;-69
2022/05/14 13:10:37;;;;;;;7.85;3.00;;;25.30;99.90;;;;;;5117876;28;20215;-69
2022/05/14 13:13:07;;;;;;;9.30;3.25;;;24.80;99.90;;;;;;5117188;28;20199;-69
2022/05/14 13:15:43;;;;;;;6.82;3.30;;;23.70;99.90;;;;;;5116252;28;20187;-69
2022/05/14 13:18:13;;;;;;;9.68;3.72;;;23.60;99.90;;;;;;5116043;28;20653;-69
2022/05/14 13:20:40;;;;;;;12.40;4.93;;;23.50;99.90;;;;;;5116587;28;20177;-69
2022/05/14 13:23:20;;;;;;;10.32;3.60;;;23.20;99.90;;;;;;5116044;28;20196;-69
2022/05/14 13:25:57;;;;;;;8.15;2.85;;;23.70;99.90;;;;;;5097749;28;20195;-70
2022/05/14 13:28:33;;;;;;;10.00;3.90;;;24.40;99.90;;;;;;5116602;28;20197;-69